createdAt,value
2022-09-28T00:00:20.256Z,11.90
2022-09-28T00:02:47.274Z,12.00
2022-09-28T00:05:14.451Z,12.30
2022-09-28T00:07:42.859Z,12.10
2022-09-28T00:10:10.035Z,12.20
2022-09-28T00:12:37.356Z,11.90
2022-09-28T00:15:04.623Z,12.10
2022-09-28T00:17:31.533Z,12.30
2022-09-28T00:19:58.473Z,12.20
2022-09-28T00:22:25.400Z,12.30
2022-09-28T00:24:53.639Z,12.30
2022-09-28T00:27:20.483Z,12.50
2022-09-28T00:29:47.365Z,12.60
2022-09-28T00:32:16.404Z,12.50
2022-09-28T00:34:45.894Z,12.60
2022-09-28T00:37:14.057Z,12.70
2022-09-28T00:39:43.993Z,12.50
2022-09-28T00:42:13.856Z,12.40
2022-09-28T00:44:47.621Z,12.30
2022-09-28T00:47:17.022Z,12.20
2022-09-28T00:49:45.278Z,12.30
2022-09-28T00:52:13.987Z,12.10
2022-09-28T00:54:42.521Z,11.90
2022-09-28T00:57:10.214Z,12.00
2022-09-28T00:59:38.597Z,11.80
2022-09-28T01:02:05.968Z,11.90
2022-09-28T01:04:33.184Z,11.80
2022-09-28T01:07:00.460Z,12.10
2022-09-28T01:09:27.806Z,11.90
2022-09-28T01:11:55.981Z,11.80
2022-09-28T01:14:25.714Z,11.70
2022-09-28T01:16:57.704Z,11.80
2022-09-28T01:19:55.772Z,11.90
2022-09-28T01:22:30.827Z,12.00
2022-09-28T01:25:06.039Z,11.90
2022-09-28T01:27:36.272Z,11.90
2022-09-28T01:30:04.624Z,12.10
2022-09-28T01:32:38.267Z,11.90
2022-09-28T01:35:08.012Z,11.90
2022-09-28T01:37:39.721Z,11.80
2022-09-28T01:40:07.629Z,11.60
2022-09-28T01:42:37.762Z,11.70
2022-09-28T01:45:06.737Z,11.70
2022-09-28T01:47:37.629Z,11.70
2022-09-28T01:50:07.249Z,11.90
2022-09-28T01:52:35.520Z,11.90
2022-09-28T01:55:06.161Z,12.00
2022-09-28T01:57:37.332Z,12.00
2022-09-28T02:00:07.892Z,12.00
2022-09-28T02:02:49.531Z,11.90
2022-09-28T02:05:23.270Z,11.80
2022-09-28T02:07:54.727Z,11.90
2022-09-28T02:10:24.771Z,12.10
2022-09-28T02:12:54.543Z,12.20
2022-09-28T02:15:24.782Z,12.40
2022-09-28T02:17:51.879Z,12.50
2022-09-28T02:20:21.116Z,12.60
2022-09-28T02:22:49.738Z,12.70
2022-09-28T02:25:20.886Z,12.30
2022-09-28T02:27:52.379Z,12.40
2022-09-28T02:30:19.366Z,12.40
2022-09-28T02:32:49.081Z,12.70
2022-09-28T02:35:17.352Z,12.50
2022-09-28T02:37:45.908Z,12.10
2022-09-28T02:40:13.700Z,12.20
2022-09-28T02:42:47.457Z,12.10
2022-09-28T02:45:17.216Z,12.10
2022-09-28T02:47:56.393Z,12.10
2022-09-28T02:50:29.550Z,12.30
2022-09-28T02:53:06.711Z,12.10
2022-09-28T02:55:42.419Z,11.90
2022-09-28T02:58:20.355Z,12.10
2022-09-28T03:00:52.967Z,12.20
2022-09-28T03:03:25.585Z,12.30
2022-09-28T03:05:53.868Z,12.20
2022-09-28T03:08:23.770Z,12.20
2022-09-28T03:10:53.952Z,12.20
2022-09-28T03:13:20.918Z,12.20
2022-09-28T03:15:49.088Z,12.20
2022-09-28T03:18:17.565Z,11.90
2022-09-28T03:20:45.864Z,12.10
2022-09-28T03:23:28.144Z,12.30
2022-09-28T03:25:56.027Z,12.40
2022-09-28T03:28:23.238Z,12.60
2022-09-28T03:30:50.209Z,12.60
2022-09-28T03:33:17.687Z,12.60
2022-09-28T03:35:48.141Z,12.50
2022-09-28T03:38:17.032Z,12.30
2022-09-28T03:40:44.354Z,12.10
2022-09-28T03:43:11.292Z,12.20
2022-09-28T03:45:38.775Z,12.10
2022-09-28T03:48:05.756Z,12.30
2022-09-28T03:50:34.190Z,12.30
2022-09-28T03:53:05.963Z,12.20
2022-09-28T03:55:32.829Z,12.30
2022-09-28T03:57:59.776Z,12.00
2022-09-28T04:00:26.672Z,11.90
2022-09-28T04:02:53.974Z,11.90
2022-09-28T04:05:20.948Z,12.10
2022-09-28T04:07:48.019Z,11.90
2022-09-28T04:10:16.380Z,12.00
2022-09-28T04:12:43.260Z,11.80
2022-09-28T04:15:10.577Z,11.70
2022-09-28T04:17:40.269Z,11.70
2022-09-28T04:20:14.316Z,11.90
2022-09-28T04:22:55.487Z,12.10
2022-09-28T04:25:23.801Z,11.90
2022-09-28T04:28:09.200Z,11.90
2022-09-28T04:30:36.841Z,12.10
2022-09-28T04:33:04.251Z,11.90
2022-09-28T04:35:31.554Z,12.00
2022-09-28T04:37:58.521Z,12.00
2022-09-28T04:40:26.874Z,12.00
2022-09-28T04:42:54.955Z,12.00
2022-09-28T04:45:22.048Z,12.10
2022-09-28T04:47:49.927Z,12.10
2022-09-28T04:50:43.019Z,12.00
2022-09-28T04:53:21.239Z,11.90
2022-09-28T04:55:58.752Z,11.90
2022-09-28T04:58:26.393Z,11.90
2022-09-28T05:00:54.520Z,11.90
2022-09-28T05:03:42.083Z,11.80
2022-09-28T05:06:22.932Z,11.90
2022-09-28T05:08:57.544Z,11.90
2022-09-28T05:11:25.884Z,11.80
2022-09-28T05:13:52.857Z,12.00
2022-09-28T05:16:20.673Z,11.90
2022-09-28T05:19:07.976Z,11.70
2022-09-28T05:21:34.958Z,11.80
2022-09-28T05:24:07.264Z,11.80
2022-09-28T05:26:37.330Z,11.70
2022-09-28T05:29:06.508Z,11.70
2022-09-28T05:31:53.730Z,11.70
2022-09-28T05:34:36.538Z,11.70
2022-09-28T05:37:03.576Z,11.60
2022-09-28T05:39:32.112Z,11.70
2022-09-28T05:42:00.557Z,11.70
2022-09-28T05:44:27.475Z,11.80
2022-09-28T05:46:55.257Z,11.80
2022-09-28T05:49:23.096Z,11.80
2022-09-28T05:51:50.044Z,12.00
2022-09-28T05:54:17.293Z,11.80
2022-09-28T05:56:46.682Z,11.80
2022-09-28T05:59:16.732Z,11.80
2022-09-28T06:01:43.807Z,12.00
2022-09-28T06:04:11.718Z,11.90
2022-09-28T06:06:39.118Z,12.00
2022-09-28T06:09:06.097Z,11.90
2022-09-28T06:11:57.824Z,11.90
2022-09-28T06:14:33.886Z,11.80
2022-09-28T06:17:00.845Z,11.80
2022-09-28T06:19:28.820Z,12.00
2022-09-28T06:22:15.937Z,11.90
2022-09-28T06:24:49.191Z,12.10
2022-09-28T06:27:16.359Z,12.30
2022-09-28T06:29:46.146Z,12.60
2022-09-28T06:32:14.066Z,13.00
2022-09-28T06:34:42.794Z,13.30
2022-09-28T06:37:09.917Z,13.90
2022-09-28T06:39:37.385Z,14.60
2022-09-28T06:42:06.381Z,15.80
2022-09-28T06:44:54.548Z,17.20
2022-09-28T06:47:42.578Z,19.10
2022-09-28T06:50:25.203Z,20.60
2022-09-28T06:53:24.214Z,21.80
2022-09-28T06:55:57.456Z,22.80
2022-09-28T06:58:24.531Z,23.10
2022-09-28T07:00:53.059Z,23.30
2022-09-28T07:03:21.581Z,23.80
2022-09-28T07:05:57.212Z,24.30
2022-09-28T07:09:02.346Z,24.40
2022-09-28T07:11:58.470Z,24.80
2022-09-28T07:14:46.771Z,24.50
2022-09-28T07:17:16.670Z,23.80
2022-09-28T07:19:44.510Z,22.60
2022-09-28T07:22:18.477Z,21.50
2022-09-28T07:24:47.080Z,20.70
2022-09-28T07:27:47.072Z,20.00
2022-09-28T07:30:52.448Z,19.40
2022-09-28T07:33:39.257Z,18.70
2022-09-28T07:36:16.131Z,18.40
2022-09-28T07:38:44.051Z,18.20
2022-09-28T07:41:11.294Z,18.20
2022-09-28T07:43:42.992Z,18.10
2022-09-28T07:46:12.258Z,18.10
2022-09-28T07:48:45.836Z,18.10
2022-09-28T07:51:21.335Z,17.90
2022-09-28T07:54:01.970Z,18.10
2022-09-28T07:56:45.746Z,18.30
2022-09-28T07:59:38.922Z,18.50
2022-09-28T08:02:06.045Z,18.60
2022-09-28T08:04:34.488Z,18.70
2022-09-28T08:07:02.825Z,18.80
2022-09-28T08:09:29.852Z,19.00
2022-09-28T08:12:15.573Z,19.10
2022-09-28T08:14:57.094Z,19.60
2022-09-28T08:17:47.243Z,20.30
2022-09-28T08:20:34.813Z,20.70
2022-09-28T08:23:05.396Z,21.00
2022-09-28T08:25:32.868Z,21.40
2022-09-28T08:28:02.335Z,22.20
2022-09-28T08:30:31.974Z,22.30
2022-09-28T08:33:28.446Z,22.90
2022-09-28T08:36:42.356Z,23.50
2022-09-28T08:39:31.735Z,23.40
2022-09-28T08:42:15.751Z,24.00
2022-09-28T08:45:09.543Z,24.50
2022-09-28T08:48:20.765Z,25.20
2022-09-28T08:51:15.546Z,26.30
2022-09-28T08:54:05.762Z,27.00
2022-09-28T08:56:49.078Z,27.30
2022-09-28T08:59:17.497Z,28.20
2022-09-28T09:01:49.654Z,29.00
2022-09-28T09:04:17.817Z,29.10
2022-09-28T09:07:14.224Z,29.10
2022-09-28T09:09:53.587Z,29.80
2022-09-28T09:12:25.208Z,30.00
2022-09-28T09:15:10.719Z,28.70
2022-09-28T09:17:47.350Z,29.00
2022-09-28T09:20:41.735Z,29.10
2022-09-28T09:23:17.332Z,27.60
2022-09-28T09:25:48.645Z,28.30
2022-09-28T09:28:45.726Z,28.70
2022-09-28T09:31:22.663Z,29.80
2022-09-28T09:33:59.342Z,31.00
2022-09-28T09:36:59.268Z,31.50
2022-09-28T09:39:58.235Z,33.10
2022-09-28T09:42:55.266Z,34.10
2022-09-28T09:45:48.864Z,34.20
2022-09-28T09:48:40.146Z,34.10
2022-09-28T09:51:14.049Z,32.20
2022-09-28T09:53:43.659Z,30.80
2022-09-28T09:56:14.365Z,30.00
2022-09-28T09:59:02.888Z,28.70
2022-09-28T10:01:39.255Z,28.00
2022-09-28T10:04:25.907Z,28.10
2022-09-28T10:06:57.549Z,28.90
2022-09-28T10:09:26.208Z,30.10
2022-09-28T10:11:55.115Z,29.20
2022-09-28T10:14:24.099Z,28.00
2022-09-28T10:17:02.335Z,28.70
2022-09-28T10:19:47.709Z,28.50
2022-09-28T10:22:45.035Z,28.00
2022-09-28T10:25:16.113Z,27.60
2022-09-28T10:27:46.047Z,27.30
2022-09-28T10:30:17.986Z,27.20
2022-09-28T10:32:46.655Z,27.50
2022-09-28T10:35:20.256Z,29.30
2022-09-28T10:37:54.190Z,28.80
2022-09-28T10:40:50.977Z,27.50
2022-09-28T10:43:29.189Z,26.00
2022-09-28T10:46:02.019Z,24.90
2022-09-28T10:48:31.228Z,23.90
2022-09-28T10:51:00.371Z,23.50
2022-09-28T10:53:27.568Z,23.10
2022-09-28T10:56:19.264Z,22.60
2022-09-28T10:58:47.288Z,22.40
2022-09-28T11:01:26.756Z,22.40
2022-09-28T11:03:55.575Z,24.00
2022-09-28T11:06:28.601Z,24.70
2022-09-28T11:08:59.798Z,26.00
2022-09-28T11:11:29.613Z,27.40
2022-09-28T11:14:03.668Z,27.20
2022-09-28T11:16:37.771Z,26.80
2022-09-28T11:19:06.815Z,27.60
2022-09-28T11:21:41.919Z,29.00
2022-09-28T11:24:19.526Z,29.60
2022-09-28T11:26:49.769Z,28.40
2022-09-28T11:29:24.344Z,27.30
2022-09-28T11:32:15.512Z,26.50
2022-09-28T11:35:01.548Z,25.80
2022-09-28T11:37:42.740Z,24.90
2022-09-28T11:40:17.144Z,24.00
2022-09-28T11:42:47.852Z,23.70
2022-09-28T11:45:24.966Z,25.00
2022-09-28T11:47:57.334Z,26.20
2022-09-28T11:50:28.490Z,27.60
2022-09-28T11:53:00.263Z,29.10
2022-09-28T11:55:32.453Z,29.60
2022-09-28T11:58:03.173Z,30.00
2022-09-28T12:00:31.047Z,30.70
2022-09-28T12:03:06.972Z,32.10
2022-09-28T12:05:35.109Z,33.10
2022-09-28T12:08:05.063Z,34.00
2022-09-28T12:10:53.864Z,34.50
2022-09-28T12:13:32.968Z,33.90
2022-09-28T12:16:45.210Z,34.00
2022-09-28T12:18:53.421Z,34.00
2022-09-28T12:21:36.687Z,33.20
2022-09-28T12:24:12.573Z,33.10
2022-09-28T12:26:44.848Z,33.30
2022-09-28T12:29:15.762Z,33.30
2022-09-28T12:31:54.046Z,33.50
2022-09-28T12:34:23.298Z,33.70
2022-09-28T12:36:55.715Z,33.40
2022-09-28T12:39:46.845Z,32.60
2022-09-28T12:42:25.465Z,30.50
2022-09-28T12:45:02.866Z,28.90
2022-09-28T12:47:40.730Z,28.30
2022-09-28T12:50:41.083Z,27.70
2022-09-28T12:53:23.479Z,27.40
2022-09-28T12:55:56.481Z,26.50
2022-09-28T12:58:36.418Z,25.40
2022-09-28T13:01:08.871Z,24.10
2022-09-28T13:03:47.069Z,22.80
2022-09-28T13:06:34.625Z,21.90
2022-09-28T13:09:08.740Z,21.10
2022-09-28T13:11:41.232Z,20.70
2022-09-28T13:14:18.382Z,20.30
2022-09-28T13:16:47.275Z,20.10
2022-09-28T13:19:16.957Z,19.80
2022-09-28T13:21:48.145Z,19.70
2022-09-28T13:24:32.586Z,19.40
2022-09-28T13:27:04.556Z,19.50
2022-09-28T13:29:31.994Z,19.50
2022-09-28T13:31:59.905Z,19.30
2022-09-28T13:34:27.915Z,19.30
2022-09-28T13:37:13.612Z,19.20
2022-09-28T13:39:52.480Z,19.20
2022-09-28T13:42:31.790Z,19.10
2022-09-28T13:45:23.190Z,19.30
2022-09-28T13:48:05.214Z,19.10
2022-09-28T13:50:36.826Z,18.80
2022-09-28T13:53:07.804Z,18.70
2022-09-28T13:55:50.332Z,18.70
2022-09-28T13:58:21.401Z,18.60
2022-09-28T14:00:51.351Z,18.60
2022-09-28T14:03:25.691Z,18.50
2022-09-28T14:06:05.837Z,18.40
2022-09-28T14:08:34.985Z,18.30
2022-09-28T14:11:24.568Z,18.20
2022-09-28T14:14:00.243Z,17.90
2022-09-28T14:16:28.162Z,17.50
2022-09-28T14:18:56.032Z,17.30
2022-09-28T14:21:37.922Z,17.00
2022-09-28T14:24:12.285Z,16.80
2022-09-28T14:26:58.425Z,16.60
2022-09-28T14:29:28.694Z,16.50
2022-09-28T14:31:56.877Z,16.60
2022-09-28T14:34:34.319Z,16.60
2022-09-28T14:37:21.011Z,16.50
2022-09-28T14:40:06.662Z,16.60
2022-09-28T14:42:34.003Z,16.60
2022-09-28T14:45:33.500Z,16.50
2022-09-28T14:48:05.131Z,16.60
2022-09-28T14:50:32.085Z,16.70
2022-09-28T14:53:04.908Z,16.80
2022-09-28T14:55:33.057Z,16.90
2022-09-28T14:57:59.978Z,16.90
2022-09-28T15:00:30.423Z,17.00
2022-09-28T15:03:00.187Z,17.30
2022-09-28T15:05:28.505Z,17.50
2022-09-28T15:07:56.063Z,17.80
2022-09-28T15:10:27.720Z,17.80
2022-09-28T15:12:56.018Z,18.00
2022-09-28T15:15:30.913Z,18.10
2022-09-28T15:18:17.104Z,18.10
2022-09-28T15:20:46.432Z,18.10
2022-09-28T15:23:27.613Z,18.30
2022-09-28T15:25:55.168Z,18.30
2022-09-28T15:28:23.204Z,18.60
2022-09-28T15:30:51.718Z,18.50
2022-09-28T15:33:45.187Z,18.60
2022-09-28T15:36:14.803Z,18.70
2022-09-28T15:38:42.149Z,18.70
2022-09-28T15:41:10.292Z,18.70
2022-09-28T15:43:37.908Z,18.70
2022-09-28T15:46:18.414Z,18.70
2022-09-28T15:48:48.484Z,18.70
2022-09-28T15:51:15.404Z,18.80
2022-09-28T15:53:43.953Z,18.70
2022-09-28T15:56:11.742Z,18.60
2022-09-28T15:58:39.430Z,18.40
2022-09-28T16:01:23.243Z,18.50
2022-09-28T16:03:50.274Z,18.30
2022-09-28T16:06:17.136Z,18.30
2022-09-28T16:08:44.623Z,18.30
2022-09-28T16:11:13.866Z,18.20
2022-09-28T16:13:46.392Z,18.20
2022-09-28T16:16:15.266Z,18.00
2022-09-28T16:18:47.388Z,17.90
2022-09-28T16:21:32.226Z,17.80
2022-09-28T16:23:59.496Z,17.60
2022-09-28T16:26:29.159Z,17.50
2022-09-28T16:28:56.318Z,17.50
2022-09-28T16:31:27.287Z,17.40
2022-09-28T16:33:56.559Z,17.30
2022-09-28T16:36:27.399Z,17.10
2022-09-28T16:38:55.185Z,17.00
2022-09-28T16:41:24.831Z,17.00
2022-09-28T16:43:54.979Z,16.90
2022-09-28T16:46:23.765Z,16.80
2022-09-28T16:48:50.868Z,16.80
2022-09-28T16:51:19.916Z,16.70
2022-09-28T16:54:05.996Z,16.70
2022-09-28T16:56:33.634Z,16.60
2022-09-28T16:59:04.459Z,16.50
2022-09-28T17:01:45.276Z,16.50
2022-09-28T17:04:15.842Z,16.60
2022-09-28T17:06:44.144Z,16.60
2022-09-28T17:09:11.941Z,16.60
2022-09-28T17:11:39.323Z,16.60
2022-09-28T17:14:06.276Z,16.50
2022-09-28T17:17:07.287Z,16.30
2022-09-28T17:19:35.942Z,16.40
2022-09-28T17:22:08.094Z,16.20
2022-09-28T17:24:35.129Z,16.20
2022-09-28T17:27:04.458Z,16.10
2022-09-28T17:29:32.582Z,16.10
2022-09-28T17:31:59.555Z,16.00
2022-09-28T17:34:26.598Z,15.90
2022-09-28T17:36:53.942Z,15.80
2022-09-28T17:39:25.025Z,15.80
2022-09-28T17:41:51.958Z,15.70
2022-09-28T17:44:20.530Z,15.70
2022-09-28T17:46:49.547Z,15.60
2022-09-28T17:49:16.954Z,15.60
2022-09-28T17:51:44.068Z,15.50
2022-09-28T17:54:13.037Z,15.40
2022-09-28T17:56:42.763Z,15.50
2022-09-28T17:59:22.479Z,15.40
2022-09-28T18:01:50.325Z,15.30
2022-09-28T18:04:39.883Z,15.30
2022-09-28T18:07:04.811Z,15.20
2022-09-28T18:09:31.706Z,15.10
2022-09-28T18:12:00.962Z,15.00
2022-09-28T18:14:31.572Z,14.90
2022-09-28T18:16:58.538Z,14.80
2022-09-28T18:19:28.635Z,14.80
2022-09-28T18:22:06.989Z,14.70
2022-09-28T18:24:34.006Z,14.70
2022-09-28T18:27:02.400Z,14.60
2022-09-28T18:29:33.096Z,14.60
2022-09-28T18:32:01.475Z,14.50
2022-09-28T18:34:28.548Z,14.40
2022-09-28T18:36:55.543Z,14.40
2022-09-28T18:39:23.901Z,14.40
2022-09-28T18:41:51.113Z,14.40
2022-09-28T18:44:19.552Z,14.40
2022-09-28T18:46:46.497Z,14.40
2022-09-28T18:49:13.496Z,14.30
2022-09-28T18:51:40.517Z,14.20
2022-09-28T18:54:07.682Z,14.20
2022-09-28T18:56:36.987Z,14.20
2022-09-28T18:59:07.642Z,14.20
2022-09-28T19:01:38.264Z,14.30
2022-09-28T19:04:06.617Z,14.10
2022-09-28T19:06:35.054Z,14.10
2022-09-28T19:09:02.297Z,14.10
2022-09-28T19:11:29.279Z,14.00
2022-09-28T19:13:57.020Z,14.00
2022-09-28T19:16:26.070Z,14.00
2022-09-28T19:18:56.564Z,13.90
2022-09-28T19:21:24.507Z,14.00
2022-09-28T19:23:53.553Z,13.90
2022-09-28T19:26:21.535Z,13.90
2022-09-28T19:28:49.283Z,13.80
2022-09-28T19:31:16.694Z,13.70
2022-09-28T19:33:46.374Z,13.70
2022-09-28T19:36:17.222Z,13.70
2022-09-28T19:38:44.391Z,13.70
2022-09-28T19:41:13.550Z,13.60
2022-09-28T19:43:43.680Z,13.60
2022-09-28T19:46:12.674Z,13.40
2022-09-28T19:48:42.693Z,13.40
2022-09-28T19:51:10.137Z,13.30
2022-09-28T19:53:39.004Z,13.10
2022-09-28T19:56:06.384Z,13.10
2022-09-28T19:58:35.308Z,12.90
2022-09-28T20:01:06.440Z,12.80
2022-09-28T20:03:33.635Z,12.80
2022-09-28T20:06:01.960Z,12.80
2022-09-28T20:08:30.235Z,12.80
2022-09-28T20:11:00.025Z,12.80
2022-09-28T20:13:31.723Z,12.80
2022-09-28T20:16:03.814Z,12.80
2022-09-28T20:18:34.029Z,12.90
2022-09-28T20:21:01.841Z,12.80
2022-09-28T20:23:28.904Z,12.80
2022-09-28T20:25:56.019Z,12.80
2022-09-28T20:28:24.225Z,12.80
2022-09-28T20:30:51.245Z,12.80
2022-09-28T20:33:22.897Z,12.80
2022-09-28T20:35:55.976Z,12.80
2022-09-28T20:38:23.672Z,12.80
2022-09-28T20:40:56.487Z,12.90
2022-09-28T20:43:31.158Z,12.80
2022-09-28T20:45:58.923Z,12.80
2022-09-28T20:48:26.386Z,12.80
2022-09-28T20:51:00.903Z,13.00
2022-09-28T20:53:27.960Z,13.00
2022-09-28T20:55:58.957Z,13.10
2022-09-28T20:58:25.845Z,13.20
2022-09-28T21:01:01.503Z,13.10
2022-09-28T21:03:28.409Z,12.90
2022-09-28T21:05:55.677Z,12.90
2022-09-28T21:08:23.838Z,12.90
2022-09-28T21:10:52.620Z,13.10
2022-09-28T21:13:20.264Z,12.90
2022-09-28T21:15:47.411Z,12.80
2022-09-28T21:18:15.668Z,12.80
2022-09-28T21:20:46.612Z,12.80
2022-09-28T21:23:13.834Z,12.80
2022-09-28T21:25:41.120Z,12.80
2022-09-28T21:28:08.613Z,12.80
2022-09-28T21:30:35.769Z,12.90
2022-09-28T21:33:03.025Z,12.90
2022-09-28T21:35:35.260Z,12.80
2022-09-28T21:39:58.116Z,12.80
2022-09-28T21:42:25.047Z,12.70
2022-09-28T21:44:53.045Z,12.60
2022-09-28T21:47:22.558Z,12.60
2022-09-28T21:49:49.539Z,12.50
2022-09-28T21:52:16.577Z,12.50
2022-09-28T21:54:43.801Z,12.40
2022-09-28T21:57:12.145Z,12.40
2022-09-28T21:59:39.143Z,12.50
2022-09-28T22:02:07.222Z,12.40
2022-09-28T22:04:34.128Z,12.40
2022-09-28T22:07:01.000Z,12.30
2022-09-28T22:09:27.900Z,12.20
2022-09-28T22:11:54.822Z,12.20
2022-09-28T22:14:23.247Z,12.20
2022-09-28T22:16:50.278Z,12.10
2022-09-28T22:19:17.229Z,12.10
2022-09-28T22:21:44.240Z,12.00
2022-09-28T22:24:11.531Z,12.00
2022-09-28T22:26:39.490Z,11.90
2022-09-28T22:29:07.576Z,11.90
2022-09-28T22:31:38.090Z,11.80
2022-09-28T22:34:06.288Z,11.70
2022-09-28T22:36:33.962Z,11.60
2022-09-28T22:39:01.248Z,11.60
2022-09-28T22:41:28.578Z,11.70
2022-09-28T22:43:55.800Z,11.60
2022-09-28T22:46:25.448Z,11.50
2022-09-28T22:48:54.719Z,11.40
2022-09-28T22:51:22.130Z,11.30
2022-09-28T22:53:49.034Z,11.20
2022-09-28T22:56:18.676Z,11.20
2022-09-28T22:58:46.538Z,11.20
2022-09-28T23:01:14.411Z,11.20
2022-09-28T23:03:42.206Z,11.30
2022-09-28T23:06:10.919Z,11.30
2022-09-28T23:08:37.962Z,11.30
2022-09-28T23:11:05.299Z,11.30
2022-09-28T23:13:32.662Z,11.40
2022-09-28T23:16:02.072Z,11.40
2022-09-28T23:18:31.440Z,11.30
2022-09-28T23:21:00.261Z,11.20
2022-09-28T23:23:29.142Z,11.20
2022-09-28T23:25:57.118Z,11.10
2022-09-28T23:28:26.088Z,11.10
2022-09-28T23:30:53.038Z,11.10
2022-09-28T23:33:20.565Z,11.10
2022-09-28T23:35:47.391Z,11.20
2022-09-28T23:38:15.092Z,11.20
2022-09-28T23:40:44.298Z,11.30
2022-09-28T23:43:11.327Z,11.30
2022-09-28T23:45:38.271Z,11.30
2022-09-28T23:48:05.259Z,11.30
2022-09-28T23:50:32.347Z,11.20
2022-09-28T23:52:59.224Z,11.10
2022-09-28T23:55:26.231Z,11.10
2022-09-28T23:57:56.618Z,11.20
